Airfield :
LOGIN :

Register | Disclaimer

   EN    FR    IT 

 










Legend :    VFR   Marginal VFR   IFR   Intensive IFR   Very Intensive IFR
Visi :
Ceiling :
>= 8 km
>= 3000ft
5 to 8 km
1000 to 3000 ft
1500m to 5 km
500 to 1000 ft
800 to 1500m
200 to 500 ft
< 800m
< 200 ft
Symbols :   Thunderstorms  Fog  Heavy snow  Heavy precipitations  Wind > 20 kt
SIGMETs :     Misc.  Thunderstorms  Icing  Turbulence  Mountain Waves  Volcanic Ashes







- Airport Elevation : 100 ft


EBDT - Schaffen

CURRENT METAR :
  • 270355Z 03009KT 9999 BKN010 15/12 Q1028 GRN

EXPIRED METARs :
  • 270325Z 03009KT 9000 SCT010 14/12 Q1027 GRN
  • 270314Z AUTO 03008KT 9999 SCT010/// 14/12 Q1027 GRN
  • 270255Z AUTO 03008KT 9000 FEW012/// 14/13 Q1027 BLU
  • 270225Z AUTO 02008KT 9999 NCD 14/13 Q1027 BLU
  • 270155Z AUTO 02008KT 9999 NCD 15/13 Q1027 BLU
  • 270125Z AUTO 02008KT 9999 NCD 15/13 Q1027 BLU

TAF TAF EBDT
Valid from the 26 at 19:00 until the 27 at 07:00 UTC


261541Z 2619/2707 01510KT 9999 FEW100
BECMG 2703/2705 04007KT 4000 BR SCT008
No reported NOTAMs for that airfield.



MET'MAP, your aeronautical weather chart ! - Copyright ORBIFLY December 2007 - Disclaimer

ORBIFLY MET'MAP TEAM :

Programming & Development : Alexandra Zaïnal
Concept & Development : Baudouin d'Aumeries
Co-Development & Prog : Marc-Olivier Méhu
Technical & hardware support : Manuel Goepfert

Contact : metmap@orbifly.com




SOURCES & CREDITS :

   NOAA